Time;durP1;ratioP1;P1;durP2;ratioP2;P2;SDS_P1;SDS_P2;PMS_P1;PMS_P2;Temp;Humidity;BMP_temperature;BMP_pressure;BME280_temperature;BME280_humidity;BME280_pressure;Samples;Min_cycle;Max_cycle;Signal;HPM_P1;HPM_P2
2022/12/02 00:01:14;;;;;;;22.63;16.80;;;;;;;4.29;100.00;98485.75;5074283;28;20232;-71
2022/12/02 00:03:41;;;;;;;19.63;16.07;;;;;;;4.32;100.00;98488.00;5074325;28;20204;-72
2022/12/02 00:06:35;;;;;;;24.57;17.47;;;;;;;4.22;100.00;98484.75;5073973;28;20588;-71
2022/12/02 00:09:34;;;;;;;24.97;17.20;;;;;;;4.43;100.00;98483.22;5073748;28;20247;-72
2022/12/02 00:12:18;;;;;;;25.67;17.40;;;;;;;4.34;100.00;98483.41;5073803;28;20231;-72
2022/12/02 00:14:45;;;;;;;23.87;17.43;;;;;;;4.25;100.00;98482.59;5074164;28;20185;-71
2022/12/02 00:17:11;;;;;;;24.67;16.93;;;;;;;4.31;100.00;98474.06;5074320;28;20200;-72
2022/12/02 00:19:38;;;;;;;23.83;17.63;;;;;;;4.30;100.00;98475.03;5073762;28;20659;-71
2022/12/02 00:22:04;;;;;;;24.67;18.30;;;;;;;4.28;100.00;98473.53;5073853;28;20315;-71
2022/12/02 00:24:30;;;;;;;24.03;16.40;;;;;;;4.27;100.00;98470.13;5073935;28;20206;-72
2022/12/02 00:26:57;;;;;;;21.90;16.93;;;;;;;4.28;100.00;98466.50;5073515;28;20641;-71
2022/12/02 00:29:23;;;;;;;25.17;17.87;;;;;;;4.20;100.00;98468.34;5073425;28;20602;-72
2022/12/02 00:31:49;;;;;;;24.80;17.27;;;;;;;4.17;100.00;98463.41;5073524;28;20227;-71
2022/12/02 00:34:16;;;;;;;25.07;17.63;;;;;;;4.19;100.00;98466.66;5073358;28;20235;-71
2022/12/02 00:36:42;;;;;;;26.10;17.50;;;;;;;4.18;100.00;98455.34;5073721;28;20208;-71
2022/12/02 00:39:08;;;;;;;25.20;18.37;;;;;;;4.25;100.00;98458.91;5073665;28;20254;-71
2022/12/02 00:41:35;;;;;;;24.33;17.00;;;;;;;4.27;100.00;98469.28;5073547;28;20224;-71
2022/12/02 00:46:45;;;;;;;23.50;17.23;;;;;;;4.29;100.00;98456.78;5073721;28;20179;-71
2022/12/02 00:49:15;;;;;;;26.77;17.67;;;;;;;4.35;100.00;98459.56;5073461;28;20224;-71
2022/12/02 00:51:43;;;;;;;26.27;17.87;;;;;;;4.47;100.00;98452.13;5073495;28;20242;-71
2022/12/02 00:54:10;;;;;;;25.57;17.30;;;;;;;4.40;100.00;98454.59;5073594;28;20204;-71
2022/12/02 00:56:37;;;;;;;23.57;17.10;;;;;;;4.25;100.00;98450.22;5073508;28;20218;-72
2022/12/02 00:59:04;;;;;;;23.90;17.93;;;;;;;4.16;100.00;98451.25;5073441;28;20205;-72
2022/12/02 01:01:31;;;;;;;27.50;18.60;;;;;;;4.12;100.00;98444.66;5074216;28;20232;-71
2022/12/02 01:03:59;;;;;;;24.80;16.97;;;;;;;4.36;100.00;98441.94;5073439;28;20286;-71
2022/12/02 01:06:25;;;;;;;27.47;17.77;;;;;;;4.32;100.00;98438.84;5073880;28;20207;-72
2022/12/02 01:08:51;;;;;;;25.07;17.53;;;;;;;4.26;100.00;98447.44;5073349;28;20234;-71
2022/12/02 01:11:18;;;;;;;24.50;18.37;;;;;;;4.28;100.00;98431.44;5073013;28;20231;-71
2022/12/02 01:13:45;;;;;;;23.50;17.00;;;;;;;4.39;100.00;98437.16;5073281;28;20204;-71
2022/12/02 01:16:11;;;;;;;25.60;17.63;;;;;;;4.28;100.00;98434.06;5073344;28;20213;-71
2022/12/02 01:18:38;;;;;;;25.07;17.90;;;;;;;4.28;100.00;98436.69;5073316;28;20291;-71
2022/12/02 01:21:04;;;;;;;24.73;16.67;;;;;;;4.30;100.00;98438.16;5072841;28;20238;-71
2022/12/02 01:23:30;;;;;;;26.67;17.23;;;;;;;4.25;100.00;98437.88;5073308;28;20214;-71
2022/12/02 01:25:57;;;;;;;25.27;17.87;;;;;;;4.25;100.00;98429.97;5073234;28;20205;-71
2022/12/02 01:28:23;;;;;;;24.57;17.23;;;;;;;4.31;100.00;98429.31;5073002;28;20211;-71
2022/12/02 01:30:49;;;;;;;26.10;17.47;;;;;;;4.12;100.00;98424.41;5073077;28;20311;-72
2022/12/02 01:33:16;;;;;;;25.07;18.00;;;;;;;4.06;100.00;98427.75;5073139;28;20213;-71
2022/12/02 01:35:42;;;;;;;24.00;16.80;;;;;;;4.16;100.00;98424.94;5073178;28;20291;-71
2022/12/02 01:38:08;;;;;;;25.43;18.10;;;;;;;4.27;100.00;98425.38;5072751;28;20571;-71
2022/12/02 01:40:35;;;;;;;24.87;17.70;;;;;;;4.10;100.00;98420.31;5073013;28;20228;-72
2022/12/02 01:43:01;;;;;;;24.03;18.17;;;;;;;4.15;100.00;98424.09;5073357;28;20204;-71
2022/12/02 01:45:30;;;;;;;27.10;18.00;;;;;;;4.20;100.00;98415.72;5076963;28;20201;-71
2022/12/02 01:47:56;;;;;;;24.73;17.57;;;;;;;4.24;100.00;98414.34;5076615;28;20597;-71
2022/12/02 01:50:23;;;;;;;27.73;18.40;;;;;;;4.21;100.00;98417.34;5076495;28;20225;-72
2022/12/02 01:52:49;;;;;;;23.67;16.87;;;;;;;4.13;100.00;98414.72;5076867;28;20209;-71
2022/12/02 01:55:22;;;;;;;23.47;17.87;;;;;;;4.14;100.00;98411.09;5076710;28;20215;-72
2022/12/02 01:57:49;;;;;;;25.43;17.77;;;;;;;4.11;100.00;98412.25;5076802;28;20278;-71
2022/12/02 02:00:16;;;;;;;24.47;16.50;;;;;;;4.13;100.00;98409.47;5058964;28;20200;-71
2022/12/02 02:02:45;;;;;;;25.20;17.63;;;;;;;4.24;100.00;98411.72;5076649;28;20204;-71
2022/12/02 02:05:16;;;;;;;24.40;17.20;;;;;;;4.04;100.00;98413.13;5076600;28;20317;-71
2022/12/02 02:07:46;;;;;;;26.03;17.83;;;;;;;4.04;100.00;98407.84;5076431;28;20204;-71
2022/12/02 02:10:13;;;;;;;22.43;17.00;;;;;;;4.24;100.00;98407.28;5076412;28;20230;-71
2022/12/02 02:12:39;;;;;;;24.73;17.17;;;;;;;4.37;100.00;98412.00;5076189;28;20566;-71
2022/12/02 02:15:09;;;;;;;26.73;17.93;;;;;;;4.16;100.00;98414.41;5076426;28;20204;-71
2022/12/02 02:17:36;;;;;;;26.87;18.40;;;;;;;4.05;100.00;98406.84;5076364;28;20204;-71
2022/12/02 02:20:06;;;;;;;27.00;18.00;;;;;;;4.06;100.00;98404.06;5075978;28;20702;-71
2022/12/02 02:22:39;;;;;;;23.87;17.80;;;;;;;4.19;100.00;98408.78;5075738;28;20231;-71
2022/12/02 02:25:13;;;;;;;23.40;17.13;;;;;;;4.21;100.00;98407.63;5076251;28;20205;-71
2022/12/02 02:27:41;;;;;;;25.33;16.73;;;;;;;4.14;100.00;98401.41;5076256;28;20192;-71
2022/12/02 02:30:07;;;;;;;26.70;18.83;;;;;;;4.05;100.00;98406.84;5076020;28;20224;-71
2022/12/02 02:32:34;;;;;;;23.67;17.57;;;;;;;4.05;100.00;98402.44;5075675;28;20239;-71
2022/12/02 02:35:01;;;;;;;26.07;17.03;;;;;;;4.24;100.00;98403.81;5075981;28;20204;-71
2022/12/02 02:37:28;;;;;;;26.10;17.50;;;;;;;4.28;100.00;98403.31;5076041;28;20204;-71
2022/12/02 02:39:54;;;;;;;25.13;17.33;;;;;;;4.32;100.00;98403.78;5075539;28;20675;-71
2022/12/02 02:42:20;;;;;;;22.53;16.87;;;;;;;4.13;100.00;98394.50;5075597;28;20228;-71
2022/12/02 02:44:47;;;;;;;24.97;16.77;;;;;;;4.19;100.00;98388.56;5075864;28;20228;-71
2022/12/02 02:47:14;;;;;;;21.73;15.50;;;;;;;4.17;100.00;98389.72;5075809;28;20211;-71
2022/12/02 02:49:40;;;;;;;24.43;17.07;;;;;;;4.10;100.00;98388.75;5057643;28;20220;-71
2022/12/02 02:52:06;;;;;;;23.87;17.17;;;;;;;4.02;100.00;98383.53;5075524;28;20240;-71
2022/12/02 02:54:33;;;;;;;37.27;19.23;;;;;;;4.04;100.00;98386.81;5075613;28;20204;-71
2022/12/02 02:56:59;;;;;;;23.37;17.17;;;;;;;4.06;100.00;98384.81;5075666;28;20209;-72
2022/12/02 02:59:26;;;;;;;24.97;17.97;;;;;;;3.99;100.00;98382.06;5075334;28;20204;-72
2022/12/02 03:01:53;;;;;;;24.30;17.63;;;;;;;4.16;100.00;98378.38;5075569;28;20228;-71
2022/12/02 03:04:21;;;;;;;24.47;17.43;;;;;;;4.08;100.00;98370.53;5075533;28;20299;-71
2022/12/02 03:06:49;;;;;;;24.87;17.13;;;;;;;4.00;100.00;98373.19;5075487;28;20211;-71
2022/12/02 03:09:17;;;;;;;22.90;17.67;;;;;;;4.03;100.00;98374.66;5057349;28;20240;-71
2022/12/02 03:11:47;;;;;;;27.00;17.67;;;;;;;3.97;100.00;98367.44;5075367;28;20227;-71
2022/12/02 03:14:15;;;;;;;24.73;17.33;;;;;;;4.11;100.00;98375.44;5075326;28;20201;-71
2022/12/02 03:16:44;;;;;;;23.23;16.73;;;;;;;4.08;100.00;98381.06;5074992;28;20211;-71
2022/12/02 03:19:10;;;;;;;24.33;16.73;;;;;;;4.01;100.00;98369.56;5074921;28;20205;-71
2022/12/02 03:21:37;;;;;;;23.70;16.13;;;;;;;4.08;100.00;98367.06;5074874;28;20221;-71
2022/12/02 03:24:05;;;;;;;24.83;17.60;;;;;;;4.03;100.00;98369.38;5074893;28;20207;-71
2022/12/02 03:26:33;;;;;;;22.90;16.33;;;;;;;4.08;100.00;98367.91;5074982;28;20204;-71
2022/12/02 03:29:00;;;;;;;23.10;16.87;;;;;;;4.02;100.00;98370.38;5074920;28;20228;-71
2022/12/02 03:31:28;;;;;;;24.30;17.83;;;;;;;4.09;100.00;98366.06;5074957;28;20256;-71
2022/12/02 03:33:55;;;;;;;24.97;16.40;;;;;;;3.95;100.00;98366.78;5074942;28;20204;-71
2022/12/02 03:36:23;;;;;;;24.57;17.67;;;;;;;4.00;100.00;98372.34;5057708;28;20200;-71
2022/12/02 03:38:49;;;;;;;22.63;16.73;;;;;;;4.18;100.00;98367.69;5074810;28;20207;-72
2022/12/02 03:41:16;;;;;;;23.67;17.57;;;;;;;4.09;100.00;98373.97;5074673;28;20225;-72
2022/12/02 03:43:43;;;;;;;27.77;17.40;;;;;;;4.14;100.00;98366.38;5074699;28;20208;-71
2022/12/02 03:46:10;;;;;;;25.40;17.17;;;;;;;4.07;100.00;98362.81;5074742;28;20209;-71
2022/12/02 03:48:38;;;;;;;23.63;16.83;;;;;;;4.08;100.00;98364.44;5074611;28;20207;-71
2022/12/02 03:51:04;;;;;;;23.67;17.73;;;;;;;4.00;100.00;98364.47;5074280;28;20227;-71
2022/12/02 03:53:32;;;;;;;25.53;17.87;;;;;;;4.05;100.00;98370.84;5074201;28;20668;-71
2022/12/02 03:56:03;;;;;;;23.37;16.63;;;;;;;4.10;100.00;98359.81;5074481;28;20200;-72
2022/12/02 03:58:36;;;;;;;25.77;17.27;;;;;;;4.16;100.00;98356.50;5074383;28;20185;-72
2022/12/02 04:01:02;;;;;;;22.37;16.93;;;;;;;3.99;100.00;98360.19;5074606;28;20307;-71
2022/12/02 04:03:29;;;;;;;23.97;17.40;;;;;;;3.93;100.00;98353.00;5074229;28;20200;-71
2022/12/02 04:05:55;;;;;;;24.70;16.70;;;;;;;4.09;100.00;98358.19;5073761;28;20231;-71
2022/12/02 04:08:21;;;;;;;25.40;17.80;;;;;;;4.03;100.00;98351.78;5074183;28;20212;-71
2022/12/02 04:10:48;;;;;;;23.47;17.77;;;;;;;4.19;100.00;98356.16;5073999;28;20232;-71
2022/12/02 04:13:14;;;;;;;25.23;17.07;;;;;;;4.04;100.00;98342.09;5074342;28;20208;-71
2022/12/02 04:15:41;;;;;;;24.17;16.33;;;;;;;4.11;100.00;98341.22;5074047;28;20215;-71
2022/12/02 04:18:07;;;;;;;22.50;15.67;;;;;;;4.13;100.00;98347.16;5073378;28;20668;-72
2022/12/02 04:20:33;;;;;;;24.30;16.97;;;;;;;4.03;100.00;98343.09;5073727;28;20719;-72
2022/12/02 04:23:00;;;;;;;27.27;17.70;;;;;;;4.11;100.00;98343.06;5073795;28;20664;-71
2022/12/02 04:25:26;;;;;;;23.57;16.87;;;;;;;4.06;100.00;98334.81;5073818;28;20204;-71
2022/12/02 04:27:52;;;;;;;24.40;16.77;;;;;;;3.87;100.00;98322.09;5073467;28;20262;-71
2022/12/02 04:30:19;;;;;;;24.87;17.87;;;;;;;3.91;100.00;98324.22;5073575;28;20225;-71
2022/12/02 04:32:45;;;;;;;22.37;16.67;;;;;;;4.02;100.00;98323.03;5073747;28;20215;-72
2022/12/02 04:35:12;;;;;;;24.53;16.97;;;;;;;3.97;100.00;98325.38;5073379;28;20207;-71
2022/12/02 04:37:38;;;;;;;26.10;16.43;;;;;;;3.93;100.00;98324.06;5073495;28;20231;-71
2022/12/02 04:40:06;;;;;;;27.97;18.30;;;;;;;3.91;100.00;98324.22;5073527;28;20197;-71
2022/12/02 04:42:32;;;;;;;24.23;16.90;;;;;;;3.89;100.00;98317.50;5073042;28;20221;-71
2022/12/02 04:44:58;;;;;;;23.17;17.07;;;;;;;4.03;100.00;98319.41;5073043;28;20208;-71
2022/12/02 04:47:25;;;;;;;26.93;17.57;;;;;;;3.97;100.00;98320.09;5073387;28;20204;-71
2022/12/02 04:49:51;;;;;;;24.70;16.57;;;;;;;4.07;100.00;98320.72;5073119;28;20567;-71
2022/12/02 04:52:17;;;;;;;27.63;17.20;;;;;;;4.16;100.00;98327.56;5073066;28;20599;-71
2022/12/02 04:54:44;;;;;;;24.20;16.67;;;;;;;4.09;100.00;98318.72;5073392;28;20213;-71
2022/12/02 04:57:10;;;;;;;25.83;16.73;;;;;;;4.01;100.00;98321.38;5073379;28;20204;-71
2022/12/02 04:59:37;;;;;;;23.70;16.70;;;;;;;4.23;100.00;98339.03;5073339;28;20291;-71
2022/12/02 05:02:03;;;;;;;25.40;17.43;;;;;;;4.08;100.00;98322.34;5073165;28;20220;-71
2022/12/02 05:04:29;;;;;;;25.47;17.33;;;;;;;4.04;100.00;98323.69;5073138;28;20295;-71
2022/12/02 05:06:56;;;;;;;24.60;17.73;;;;;;;4.20;100.00;98327.03;5073170;28;20215;-71
2022/12/02 05:09:22;;;;;;;25.23;17.10;;;;;;;4.01;100.00;98319.56;5072843;28;20224;-71
2022/12/02 05:11:49;;;;;;;24.03;17.37;;;;;;;4.09;100.00;98321.34;5073213;28;20231;-71
2022/12/02 05:14:15;;;;;;;29.07;17.70;;;;;;;4.14;100.00;98316.38;5073157;28;20208;-71
2022/12/02 05:16:41;;;;;;;24.93;17.53;;;;;;;4.13;100.00;98327.91;5073025;28;20219;-71
2022/12/02 05:19:08;;;;;;;31.73;20.30;;;;;;;4.06;100.00;98325.13;5075035;28;20291;-71
2022/12/02 05:21:34;;;;;;;32.27;20.87;;;;;;;3.99;100.00;98313.69;5077192;28;20246;-71
2022/12/02 05:24:00;;;;;;;24.97;17.17;;;;;;;4.04;100.00;98324.50;5077027;28;20204;-71
2022/12/02 05:26:27;;;;;;;25.70;17.80;;;;;;;3.99;100.00;98318.94;5077151;28;20205;-71
2022/12/02 05:28:53;;;;;;;28.07;18.40;;;;;;;3.94;100.00;98321.25;5077102;28;20211;-71
2022/12/02 05:31:20;;;;;;;26.30;18.80;;;;;;;3.97;100.00;98318.28;5076986;28;20232;-71
2022/12/02 05:33:46;;;;;;;29.00;18.87;;;;;;;3.95;100.00;98317.66;5076990;28;20208;-72
2022/12/02 05:36:13;;;;;;;28.63;18.30;;;;;;;3.86;100.00;98316.03;5077180;28;20565;-71
2022/12/02 05:38:40;;;;;;;29.53;19.33;;;;;;;4.09;100.00;98313.44;5076854;28;20205;-71
2022/12/02 05:41:07;;;;;;;26.67;19.47;;;;;;;3.87;100.00;98319.47;5076769;28;20582;-71
2022/12/02 05:43:39;;;;;;;31.43;19.30;;;;;;;3.95;100.00;98311.53;5076651;28;20299;-71
2022/12/02 05:46:15;;;;;;;29.67;18.53;;;;;;;3.95;100.00;98312.38;5076594;28;20189;-71
2022/12/02 05:48:42;;;;;;;32.23;19.50;;;;;;;3.85;100.00;98314.38;5076929;28;20225;-71
2022/12/02 05:51:12;;;;;;;30.90;20.23;;;;;;;3.83;100.00;98311.09;5076431;28;20228;-71
2022/12/02 05:53:41;;;;;;;29.73;18.60;;;;;;;3.93;100.00;98314.34;5076831;28;20204;-71
2022/12/02 05:56:27;;;;;;;31.77;19.77;;;;;;;3.83;100.00;98310.28;5076241;28;20295;-71
2022/12/02 05:59:01;;;;;;;28.90;19.50;;;;;;;3.89;100.00;98310.41;5076315;28;20217;-71
2022/12/02 06:01:38;;;;;;;28.17;19.53;;;;;;;3.84;100.00;98310.09;5077194;28;20294;-71
2022/12/02 06:04:11;;;;;;;31.30;19.93;;;;;;;3.75;100.00;98311.13;5076216;28;20200;-71
2022/12/02 06:06:38;;;;;;;30.97;20.40;;;;;;;3.82;100.00;98309.47;5075988;28;20189;-71
2022/12/02 06:09:17;;;;;;;32.23;19.67;;;;;;;3.77;100.00;98305.72;5076822;28;20292;-71
2022/12/02 06:11:44;;;;;;;30.43;19.70;;;;;;;3.78;100.00;98312.59;5076024;28;20224;-71
2022/12/02 06:14:16;;;;;;;36.10;21.27;;;;;;;3.74;100.00;98306.03;5075948;28;20295;-71
2022/12/02 06:16:47;;;;;;;29.70;19.43;;;;;;;3.78;100.00;98308.16;5075966;28;20275;-71
2022/12/02 06:19:46;;;;;;;34.77;20.80;;;;;;;3.80;100.00;98303.53;5075930;28;20637;-71
2022/12/02 06:22:24;;;;;;;33.13;20.57;;;;;;;3.88;100.00;98302.72;5075440;28;20263;-71
2022/12/02 06:24:51;;;;;;;31.53;20.80;;;;;;;3.82;100.00;98298.94;5075702;28;20276;-71
2022/12/02 06:27:18;;;;;;;34.33;20.87;;;;;;;3.83;100.00;98295.31;5075717;28;20205;-71
2022/12/02 06:29:50;;;;;;;33.23;19.60;;;;;;;3.86;100.00;98299.44;5075255;28;20307;-71
2022/12/02 06:32:20;;;;;;;34.07;20.07;;;;;;;3.79;100.00;98299.28;5075157;28;20235;-71
2022/12/02 06:34:49;;;;;;;32.23;20.87;;;;;;;3.81;100.00;98299.13;5075303;28;20189;-71
2022/12/02 06:37:21;;;;;;;33.97;21.33;;;;;;;3.84;100.00;98291.69;5075092;28;20209;-71
2022/12/02 06:39:54;;;;;;;28.93;18.57;;;;;;;3.99;100.00;98297.06;5075114;28;20185;-71
2022/12/02 06:42:33;;;;;;;30.97;19.37;;;;;;;4.01;100.00;98292.44;5075266;28;20307;-71
2022/12/02 06:45:13;;;;;;;29.00;18.40;;;;;;;3.96;100.00;98294.78;5075399;28;20271;-71
2022/12/02 06:47:42;;;;;;;28.60;18.70;;;;;;;4.05;100.00;98297.19;5075164;28;20199;-71
2022/12/02 06:50:24;;;;;;;29.57;18.87;;;;;;;4.02;100.00;98296.72;5074693;28;20587;-71
2022/12/02 06:52:50;;;;;;;28.07;18.53;;;;;;;4.03;100.00;98291.28;5075684;28;20534;-71
2022/12/02 06:55:26;;;;;;;28.43;18.03;;;;;;;4.02;100.00;98297.53;5075047;28;20296;-71
2022/12/02 06:57:53;;;;;;;30.20;19.40;;;;;;;3.97;100.00;98293.81;5078742;28;20192;-71
2022/12/02 07:00:19;;;;;;;28.20;18.27;;;;;;;3.97;100.00;98296.44;5084216;28;20202;-71
2022/12/02 07:02:45;;;;;;;29.20;19.90;;;;;;;4.05;100.00;98301.63;5085969;28;20200;-71
2022/12/02 07:05:20;;;;;;;31.83;19.70;;;;;;;3.82;100.00;98295.50;5084523;28;20203;-70
2022/12/02 07:07:47;;;;;;;29.83;19.60;;;;;;;3.84;100.00;98302.22;5083535;28;20279;-71
2022/12/02 07:10:31;;;;;;;29.70;18.93;;;;;;;3.94;100.00;98307.28;5081906;28;20701;-71
2022/12/02 07:12:58;;;;;;;32.00;20.23;;;;;;;3.83;100.00;98300.59;5075108;28;20234;-71
2022/12/02 07:15:32;;;;;;;30.33;19.10;;;;;;;3.86;100.00;98302.06;5092801;28;20206;-72
2022/12/02 07:18:02;;;;;;;30.63;19.53;;;;;;;3.87;100.00;98293.16;5095170;28;20611;-71
2022/12/02 07:20:34;;;;;;;33.23;21.53;;;;;;;3.94;100.00;98299.41;5095095;28;20200;-71
2022/12/02 07:23:05;;;;;;;30.80;20.30;;;;;;;3.88;100.00;98300.09;5094707;28;20210;-71
2022/12/02 07:25:39;;;;;;;30.53;19.20;;;;;;;4.09;100.00;98297.66;5076827;28;20196;-71
2022/12/02 07:28:36;;;;;;;34.77;21.03;;;;;;;3.89;100.00;98305.16;5095033;28;20191;-71
2022/12/02 07:31:27;;;;;;;32.90;20.50;;;;;;;3.87;100.00;98299.25;5094766;28;20246;-71
2022/12/02 07:33:54;;;;;;;33.17;20.33;;;;;;;3.82;100.00;98311.28;5094831;28;20195;-71
2022/12/02 07:36:21;;;;;;;33.43;20.17;;;;;;;3.83;100.00;98299.75;5094469;28;20544;-71
2022/12/02 07:38:47;;;;;;;32.90;19.37;;;;;;;3.86;100.00;98300.25;5094701;28;20207;-71
2022/12/02 07:41:14;;;;;;;33.20;20.73;;;;;;;4.03;100.00;98306.25;5093438;28;20215;-71
2022/12/02 07:43:40;;;;;;;31.10;20.43;;;;;;;3.87;100.00;98301.06;5094578;28;20294;-71
2022/12/02 07:46:06;;;;;;;32.20;19.23;;;;;;;3.94;100.00;98294.94;5094352;28;20214;-71
2022/12/02 07:48:33;;;;;;;32.13;20.37;;;;;;;3.90;100.00;98298.09;5094547;28;20204;-71
2022/12/02 07:51:00;;;;;;;29.57;20.00;;;;;;;3.91;100.00;98297.09;5094495;28;20661;-71
2022/12/02 07:53:26;;;;;;;32.73;19.90;;;;;;;4.01;100.00;98302.97;5093809;28;20553;-71
2022/12/02 07:55:53;;;;;;;31.47;20.57;;;;;;;3.92;100.00;98301.34;5094280;28;20200;-71
2022/12/02 07:58:19;;;;;;;31.77;20.23;;;;;;;4.09;100.00;98297.66;5093973;28;20281;-71
2022/12/02 08:00:46;;;;;;;31.07;19.70;;;;;;;4.04;100.00;98306.09;5093535;28;20699;-71
2022/12/02 08:03:12;;;;;;;32.33;20.67;;;;;;;3.99;100.00;98300.53;5094260;28;20304;-71
2022/12/02 08:05:38;;;;;;;31.10;19.83;;;;;;;3.89;100.00;98301.72;5093879;28;20281;-71
2022/12/02 08:08:05;;;;;;;31.97;20.37;;;;;;;3.82;100.00;98301.59;5093868;28;20214;-71
2022/12/02 08:10:31;;;;;;;34.27;21.00;;;;;;;3.86;100.00;98299.44;5094193;28;20224;-71
2022/12/02 08:12:58;;;;;;;38.90;22.30;;;;;;;3.90;100.00;98303.34;5094101;28;20204;-71
2022/12/02 08:15:24;;;;;;;35.17;21.40;;;;;;;3.88;100.00;98302.72;5093734;28;20210;-71
2022/12/02 08:17:50;;;;;;;36.83;21.47;;;;;;;3.97;100.00;98299.06;5093789;28;20208;-71
2022/12/02 08:20:17;;;;;;;32.07;19.77;;;;;;;4.10;100.00;98297.50;5094087;28;20208;-71
2022/12/02 08:22:43;;;;;;;33.10;21.20;;;;;;;3.93;100.00;98303.03;5093853;28;20290;-71
2022/12/02 08:25:10;;;;;;;31.20;19.87;;;;;;;4.03;100.00;98299.16;5093923;28;20204;-71
2022/12/02 08:27:39;;;;;;;35.60;21.57;;;;;;;3.94;100.00;98294.13;5093604;28;20208;-71
2022/12/02 08:30:09;;;;;;;30.80;20.83;;;;;;;4.02;100.00;98296.72;5093976;28;20211;-71
2022/12/02 08:32:36;;;;;;;30.33;20.33;;;;;;;4.04;100.00;98289.47;5093768;28;20259;-71
2022/12/02 08:35:03;;;;;;;35.00;21.83;;;;;;;3.94;100.00;98294.94;5093735;28;20207;-71
2022/12/02 08:37:30;;;;;;;38.53;23.23;;;;;;;3.97;100.00;98288.53;5093286;28;20204;-71
2022/12/02 08:39:56;;;;;;;34.17;21.80;;;;;;;3.91;100.00;98289.22;5093006;28;20235;-71
2022/12/02 08:42:22;;;;;;;35.23;20.67;;;;;;;3.97;100.00;98280.66;5093230;28;20221;-71
2022/12/02 08:44:49;;;;;;;35.20;22.30;;;;;;;3.93;100.00;98281.97;5093561;28;20210;-71
2022/12/02 08:47:15;;;;;;;30.43;19.83;;;;;;;4.04;100.00;98284.22;5093336;28;20553;-71
2022/12/02 08:49:42;;;;;;;30.57;20.23;;;;;;;4.10;100.00;98286.16;5093455;28;20210;-71
2022/12/02 08:52:08;;;;;;;28.67;18.90;;;;;;;4.04;100.00;98284.22;5092908;28;20601;-71
2022/12/02 08:54:34;;;;;;;26.73;17.47;;;;;;;3.92;100.00;98283.78;5093328;28;20204;-71
2022/12/02 08:57:01;;;;;;;28.60;17.73;;;;;;;3.93;100.00;98282.78;5092870;28;20684;-71
2022/12/02 08:59:27;;;;;;;25.60;17.13;;;;;;;3.94;100.00;98283.63;5075316;28;20200;-71
2022/12/02 09:01:54;;;;;;;30.93;18.30;;;;;;;3.94;100.00;98280.97;5093424;28;20259;-71
2022/12/02 09:04:21;;;;;;;28.20;17.90;;;;;;;3.86;100.00;98281.84;5093368;28;20276;-71
2022/12/02 09:06:47;;;;;;;26.60;17.83;;;;;;;3.86;100.00;98279.22;5093228;28;20214;-71
2022/12/02 09:09:13;;;;;;;25.43;17.67;;;;;;;3.89;100.00;98280.69;5093497;28;20215;-71
2022/12/02 09:11:40;;;;;;;25.57;18.37;;;;;;;3.94;100.00;98280.97;5092662;28;20227;-71
2022/12/02 09:14:06;;;;;;;23.27;16.50;;;;;;;3.89;100.00;98270.97;5093151;28;20213;-71
2022/12/02 09:16:32;;;;;;;26.47;17.43;;;;;;;3.86;100.00;98266.06;5093070;28;20204;-71
2022/12/02 09:18:59;;;;;;;22.53;16.10;;;;;;;3.94;100.00;98275.72;5093286;28;20200;-71
2022/12/02 09:21:25;;;;;;;23.40;16.00;;;;;;;3.95;100.00;98275.56;5093036;28;20245;-71
2022/12/02 09:23:52;;;;;;;21.87;15.43;;;;;;;3.96;100.00;98279.00;5093048;28;20226;-71
2022/12/02 09:26:18;;;;;;;21.60;14.23;;;;;;;4.02;100.00;98278.31;5093112;28;20200;-71
2022/12/02 09:28:45;;;;;;;21.40;15.00;;;;;;;3.90;100.00;98277.06;5092704;28;20554;-71
2022/12/02 09:31:12;;;;;;;24.83;15.97;;;;;;;3.80;100.00;98274.63;5092475;28;20713;-71
2022/12/02 09:33:38;;;;;;;24.97;16.90;;;;;;;3.73;100.00;98280.75;5092662;28;20200;-70
2022/12/02 09:36:05;;;;;;;21.67;15.70;;;;;;;3.91;100.00;98281.31;5093712;28;20211;-72
2022/12/02 09:38:31;;;;;;;23.50;16.67;;;;;;;3.84;100.00;98280.38;5093176;28;20206;-72
2022/12/02 09:40:59;;;;;;;24.17;15.13;;;;;;;3.96;100.00;98276.34;5093010;28;20219;-71
2022/12/02 09:43:28;;;;;;;22.63;14.77;;;;;;;3.86;100.00;98271.31;5093267;28;20207;-71
2022/12/02 09:45:55;;;;;;;22.63;15.63;;;;;;;3.90;100.00;98275.25;5092534;28;20575;-71
2022/12/02 09:48:22;;;;;;;21.00;15.23;;;;;;;4.00;100.00;98267.13;5093041;28;20204;-71
2022/12/02 09:50:48;;;;;;;20.43;12.87;;;;;;;3.91;100.00;98270.78;5092393;28;20594;-72
2022/12/02 09:53:17;;;;;;;18.70;12.93;;;;;;;3.99;100.00;98263.72;5093013;28;20188;-72
2022/12/02 09:55:44;;;;;;;17.43;12.40;;;;;;;4.05;100.00;98254.28;5075489;28;20296;-71
2022/12/02 09:58:20;;;;;;;15.33;11.80;;;;;;;3.94;100.00;98266.00;5092863;28;20210;-71
2022/12/02 10:00:47;;;;;;;19.03;12.77;;;;;;;3.96;100.00;98261.41;5092915;28;20309;-71
2022/12/02 10:03:16;;;;;;;17.20;12.50;;;;;;;3.91;100.00;98257.66;5093101;28;20200;-71
2022/12/02 10:05:43;;;;;;;19.23;13.13;;;;;;;3.76;100.00;98259.38;5095787;28;20211;-71
2022/12/02 10:08:21;;;;;;;19.67;13.57;;;;;;;3.87;100.00;98261.59;5096785;28;20688;-71
2022/12/02 10:10:48;;;;;;;19.37;13.50;;;;;;;3.87;100.00;98256.34;5096534;28;20235;-71
2022/12/02 10:13:16;;;;;;;21.40;13.43;;;;;;;3.92;100.00;98254.84;5096186;28;20697;-71
2022/12/02 10:15:43;;;;;;;19.67;13.57;;;;;;;3.91;100.00;98249.75;5096323;28;20203;-71
2022/12/02 10:18:20;;;;;;;23.50;14.27;;;;;;;3.91;100.00;98245.34;5096533;28;20581;-71
2022/12/02 10:20:46;;;;;;;19.23;13.33;;;;;;;4.00;100.00;98251.34;5096128;28;20219;-72
2022/12/02 10:23:21;;;;;;;20.50;13.33;;;;;;;3.84;100.00;98256.72;5096379;28;20294;-71
2022/12/02 10:25:51;;;;;;;17.23;12.60;;;;;;;3.91;100.00;98242.69;5096682;28;20192;-72
2022/12/02 10:28:29;;;;;;;17.13;11.50;;;;;;;3.83;100.00;98237.47;5096180;28;20357;-72
2022/12/02 10:31:22;;;;;;;17.60;12.13;;;;;;;3.95;100.00;98241.38;5095455;28;20245;-72
2022/12/02 10:33:53;;;;;;;14.20;10.33;;;;;;;3.87;100.00;98240.56;5091912;28;20208;-72
2022/12/02 10:36:49;;;;;;;13.30;10.30;;;;;;;3.93;100.00;98226.75;5095858;28;20663;-71
2022/12/02 10:39:20;;;;;;;14.13;9.77;;;;;;;4.03;100.00;98232.59;5074841;28;20231;-72
2022/12/02 10:42:15;;;;;;;15.70;10.33;;;;;;;3.96;100.00;98229.00;5095814;28;20223;-71
2022/12/02 10:44:44;;;;;;;16.13;10.30;;;;;;;3.97;100.00;98230.69;5087041;28;20260;-72
2022/12/02 10:47:11;;;;;;;14.50;10.33;;;;;;;3.92;100.00;98232.97;5095972;28;20206;-72
2022/12/02 10:49:37;;;;;;;13.60;10.17;;;;;;;3.83;100.00;98231.38;5095698;28;20576;-71
2022/12/02 10:52:10;;;;;;;12.77;9.57;;;;;;;3.94;100.00;98218.66;5095228;28;20224;-72
2022/12/02 10:54:39;;;;;;;13.73;9.87;;;;;;;4.07;100.00;98220.75;5095565;28;20290;-71
2022/12/02 10:57:06;;;;;;;12.90;9.90;;;;;;;3.98;100.00;98219.97;5095544;28;20662;-71
2022/12/02 10:59:33;;;;;;;12.67;9.10;;;;;;;3.94;100.00;98215.22;5095762;28;20199;-71
2022/12/02 11:02:00;;;;;;;13.03;9.00;;;;;;;3.95;100.00;98215.06;5095082;28;20223;-71
2022/12/02 11:04:28;;;;;;;12.27;8.70;;;;;;;3.95;100.00;98212.44;5095425;28;20208;-71
2022/12/02 11:06:55;;;;;;;13.03;9.27;;;;;;;3.81;100.00;98213.19;5095283;28;20226;-70
2022/12/02 11:09:25;;;;;;;13.20;9.23;;;;;;;4.00;100.00;98204.84;5095936;28;20204;-71
2022/12/02 11:11:51;;;;;;;11.63;9.10;;;;;;;3.91;100.00;98210.31;5095720;28;20227;-71
2022/12/02 11:14:39;;;;;;;13.57;8.90;;;;;;;3.89;100.00;98205.22;5095037;28;20207;-71
2022/12/02 11:17:11;;;;;;;13.27;9.40;;;;;;;3.76;100.00;98207.59;5093975;28;20196;-72
2022/12/02 11:19:44;;;;;;;11.83;9.07;;;;;;;3.79;100.00;98206.44;5095207;28;20199;-72
2022/12/02 11:22:48;;;;;;;12.33;9.10;;;;;;;3.78;100.00;98197.72;5094947;28;20232;-72
2022/12/02 11:25:43;;;;;;;12.20;8.50;;;;;;;3.91;100.00;98197.16;5094811;28;20200;-71
2022/12/02 11:28:18;;;;;;;11.67;8.20;;;;;;;4.03;100.00;98199.22;5094674;28;20206;-72